KMCI/MCI METAR and TAF weather

Enter ICAO airport designator
Station Type Date Time Source
KMCI METAR 2024/07/23 17:53 UTC NOAA

KMCI 231753Z VRB03KT 10SM BKN040 28/19 A3009 RMK AO2 SLP179 T02830189 10283 20172 50002


Station Type Date Time Source
KMCI Decoded METAR 2024/07/23 17:53 UTC NOAA

KANSAS CITY INTERNATIONAL AIRPORT, MO, United States (KMCI) 39-18N 94-44W 320M
Jul 23, 2024 - 01:53 PM EDT / 2024.07.23 1753 UTC
Wind: Variable at 3 MPH (3 KT):0
Visibility: 10 mile(s):0
Sky conditions: mostly cloudy
Temperature: 82.9 F (28.3 C)
Dew Point: 66.0 F (18.9 C)
Relative Humidity: 56%
Pressure (altimeter): 30.09 in. Hg (1018 hPa)
Pressure tendency: 0.01 inches (0.2 hPa) higher than three hours ago
ob: KMCI 231753Z VRB03KT 10SM BKN040 28/19 A3009 RMK AO2 SLP179 T02830189 10283 20172 50002
cycle: 18

Station Type Date Time Source
KMCI TAF 2024/07/23 18:30 UTC NOAA